sensor_id;sensor_type;location;lat;lon;timestamp;P1;durP1;ratioP1;P2;durP2;ratioP2
2538;SDS011;1280;49.760;9.664;2022-07-21T00:00:18;16.60;;;12.57;;
2538;SDS011;1280;49.760;9.664;2022-07-21T00:02:47;19.20;;;12.63;;
2538;SDS011;1280;49.760;9.664;2022-07-21T00:05:15;16.77;;;12.20;;
2538;SDS011;1280;49.760;9.664;2022-07-21T00:07:44;17.80;;;12.57;;
2538;SDS011;1280;49.760;9.664;2022-07-21T00:10:12;19.53;;;12.60;;
2538;SDS011;1280;49.760;9.664;2022-07-21T00:12:40;18.60;;;12.63;;
2538;SDS011;1280;49.760;9.664;2022-07-21T00:15:11;15.30;;;12.00;;
2538;SDS011;1280;49.760;9.664;2022-07-21T00:17:40;15.03;;;12.10;;
2538;SDS011;1280;49.760;9.664;2022-07-21T00:20:09;17.83;;;12.07;;
2538;SDS011;1280;49.760;9.664;2022-07-21T00:22:38;16.10;;;12.60;;
2538;SDS011;1280;49.760;9.664;2022-07-21T00:25:07;16.83;;;12.93;;
2538;SDS011;1280;49.760;9.664;2022-07-21T00:27:37;18.43;;;12.50;;
2538;SDS011;1280;49.760;9.664;2022-07-21T00:30:05;17.77;;;12.83;;
2538;SDS011;1280;49.760;9.664;2022-07-21T00:32:36;15.77;;;12.63;;
2538;SDS011;1280;49.760;9.664;2022-07-21T00:35:05;17.97;;;12.20;;
2538;SDS011;1280;49.760;9.664;2022-07-21T00:37:34;16.37;;;12.37;;
2538;SDS011;1280;49.760;9.664;2022-07-21T00:40:02;16.03;;;12.13;;
2538;SDS011;1280;49.760;9.664;2022-07-21T00:42:31;19.40;;;13.07;;
2538;SDS011;1280;49.760;9.664;2022-07-21T00:45:00;15.07;;;12.40;;
2538;SDS011;1280;49.760;9.664;2022-07-21T00:47:29;18.60;;;13.33;;
2538;SDS011;1280;49.760;9.664;2022-07-21T00:50:00;23.00;;;13.00;;
2538;SDS011;1280;49.760;9.664;2022-07-21T00:52:30;16.20;;;12.90;;
2538;SDS011;1280;49.760;9.664;2022-07-21T00:54:58;15.17;;;12.80;;
2538;SDS011;1280;49.760;9.664;2022-07-21T00:57:28;15.80;;;12.40;;
2538;SDS011;1280;49.760;9.664;2022-07-21T00:59:56;15.90;;;13.40;;
2538;SDS011;1280;49.760;9.664;2022-07-21T01:02:24;17.63;;;13.90;;
2538;SDS011;1280;49.760;9.664;2022-07-21T01:04:53;17.23;;;14.07;;
2538;SDS011;1280;49.760;9.664;2022-07-21T01:07:23;16.97;;;12.97;;
2538;SDS011;1280;49.760;9.664;2022-07-21T01:09:51;18.17;;;13.50;;
2538;SDS011;1280;49.760;9.664;2022-07-21T01:12:19;15.73;;;12.63;;
2538;SDS011;1280;49.760;9.664;2022-07-21T01:14:47;19.53;;;13.43;;
2538;SDS011;1280;49.760;9.664;2022-07-21T01:17:15;16.40;;;13.00;;
2538;SDS011;1280;49.760;9.664;2022-07-21T01:19:43;14.40;;;11.90;;
2538;SDS011;1280;49.760;9.664;2022-07-21T01:22:13;14.73;;;12.80;;
2538;SDS011;1280;49.760;9.664;2022-07-21T01:24:42;20.63;;;13.10;;
2538;SDS011;1280;49.760;9.664;2022-07-21T01:27:19;16.97;;;14.07;;
2538;SDS011;1280;49.760;9.664;2022-07-21T01:29:47;16.17;;;12.33;;
2538;SDS011;1280;49.760;9.664;2022-07-21T01:32:15;18.97;;;15.33;;
2538;SDS011;1280;49.760;9.664;2022-07-21T01:34:43;16.80;;;13.17;;
2538;SDS011;1280;49.760;9.664;2022-07-21T01:37:12;16.70;;;13.43;;
2538;SDS011;1280;49.760;9.664;2022-07-21T01:39:40;16.13;;;12.40;;
2538;SDS011;1280;49.760;9.664;2022-07-21T01:42:26;15.87;;;12.47;;
2538;SDS011;1280;49.760;9.664;2022-07-21T01:44:54;17.23;;;12.73;;
2538;SDS011;1280;49.760;9.664;2022-07-21T01:47:23;15.93;;;12.57;;
2538;SDS011;1280;49.760;9.664;2022-07-21T01:49:51;17.60;;;14.00;;
2538;SDS011;1280;49.760;9.664;2022-07-21T01:52:21;19.30;;;13.63;;
2538;SDS011;1280;49.760;9.664;2022-07-21T01:54:49;16.33;;;13.57;;
2538;SDS011;1280;49.760;9.664;2022-07-21T01:57:18;16.27;;;13.47;;
2538;SDS011;1280;49.760;9.664;2022-07-21T01:59:45;20.83;;;13.30;;
2538;SDS011;1280;49.760;9.664;2022-07-21T02:02:13;16.40;;;13.37;;
2538;SDS011;1280;49.760;9.664;2022-07-21T02:04:41;16.10;;;12.87;;
2538;SDS011;1280;49.760;9.664;2022-07-21T02:07:09;15.20;;;13.00;;
2538;SDS011;1280;49.760;9.664;2022-07-21T02:09:39;15.20;;;11.60;;
2538;SDS011;1280;49.760;9.664;2022-07-21T02:12:07;16.80;;;11.50;;
2538;SDS011;1280;49.760;9.664;2022-07-21T02:14:35;16.37;;;11.53;;
2538;SDS011;1280;49.760;9.664;2022-07-21T02:17:03;15.57;;;10.80;;
2538;SDS011;1280;49.760;9.664;2022-07-21T02:19:31;15.10;;;10.27;;
2538;SDS011;1280;49.760;9.664;2022-07-21T02:21:59;13.20;;;10.50;;
2538;SDS011;1280;49.760;9.664;2022-07-21T02:24:27;15.50;;;11.10;;
2538;SDS011;1280;49.760;9.664;2022-07-21T02:26:56;15.93;;;10.63;;
2538;SDS011;1280;49.760;9.664;2022-07-21T02:29:25;15.13;;;10.30;;
2538;SDS011;1280;49.760;9.664;2022-07-21T02:31:52;12.60;;;9.73;;
2538;SDS011;1280;49.760;9.664;2022-07-21T02:34:21;11.43;;;9.03;;
2538;SDS011;1280;49.760;9.664;2022-07-21T02:36:48;14.00;;;10.13;;
2538;SDS011;1280;49.760;9.664;2022-07-21T02:39:16;12.70;;;9.00;;
2538;SDS011;1280;49.760;9.664;2022-07-21T02:41:45;11.60;;;8.20;;
2538;SDS011;1280;49.760;9.664;2022-07-21T02:44:14;14.30;;;10.00;;
2538;SDS011;1280;49.760;9.664;2022-07-21T02:46:42;14.40;;;10.60;;
2538;SDS011;1280;49.760;9.664;2022-07-21T02:49:10;12.97;;;9.20;;
2538;SDS011;1280;49.760;9.664;2022-07-21T02:51:38;13.97;;;10.57;;
2538;SDS011;1280;49.760;9.664;2022-07-21T02:54:06;13.03;;;10.33;;
2538;SDS011;1280;49.760;9.664;2022-07-21T02:56:34;13.40;;;9.90;;
2538;SDS011;1280;49.760;9.664;2022-07-21T02:59:01;21.10;;;11.57;;
2538;SDS011;1280;49.760;9.664;2022-07-21T03:01:31;15.70;;;11.77;;
2538;SDS011;1280;49.760;9.664;2022-07-21T03:03:59;14.50;;;12.00;;
2538;SDS011;1280;49.760;9.664;2022-07-21T03:06:27;14.17;;;11.83;;
2538;SDS011;1280;49.760;9.664;2022-07-21T03:08:55;17.17;;;12.93;;
2538;SDS011;1280;49.760;9.664;2022-07-21T03:11:23;15.90;;;12.20;;
2538;SDS011;1280;49.760;9.664;2022-07-21T03:13:51;18.53;;;13.97;;
2538;SDS011;1280;49.760;9.664;2022-07-21T03:16:19;18.00;;;13.10;;
2538;SDS011;1280;49.760;9.664;2022-07-21T03:18:49;16.03;;;13.20;;
2538;SDS011;1280;49.760;9.664;2022-07-21T03:21:17;18.20;;;14.00;;
2538;SDS011;1280;49.760;9.664;2022-07-21T03:23:45;16.40;;;12.90;;
2538;SDS011;1280;49.760;9.664;2022-07-21T03:26:13;18.10;;;13.77;;
2538;SDS011;1280;49.760;9.664;2022-07-21T03:28:42;20.10;;;14.00;;
2538;SDS011;1280;49.760;9.664;2022-07-21T03:31:10;17.70;;;14.30;;
2538;SDS011;1280;49.760;9.664;2022-07-21T03:33:38;21.60;;;14.70;;
2538;SDS011;1280;49.760;9.664;2022-07-21T03:36:08;16.70;;;14.10;;
2538;SDS011;1280;49.760;9.664;2022-07-21T03:38:36;17.90;;;14.60;;
2538;SDS011;1280;49.760;9.664;2022-07-21T03:41:04;21.57;;;14.77;;
2538;SDS011;1280;49.760;9.664;2022-07-21T03:43:38;17.73;;;14.43;;
2538;SDS011;1280;49.760;9.664;2022-07-21T03:46:06;20.60;;;15.67;;
2538;SDS011;1280;49.760;9.664;2022-07-21T03:48:34;23.27;;;15.97;;
2538;SDS011;1280;49.760;9.664;2022-07-21T03:51:02;20.60;;;15.30;;
2538;SDS011;1280;49.760;9.664;2022-07-21T03:53:32;19.87;;;14.87;;
2538;SDS011;1280;49.760;9.664;2022-07-21T03:56:00;21.10;;;15.13;;
2538;SDS011;1280;49.760;9.664;2022-07-21T03:58:28;19.57;;;15.40;;
2538;SDS011;1280;49.760;9.664;2022-07-21T04:00:56;27.20;;;15.73;;
2538;SDS011;1280;49.760;9.664;2022-07-21T04:03:25;21.43;;;16.47;;
2538;SDS011;1280;49.760;9.664;2022-07-21T04:05:53;20.23;;;16.13;;
2538;SDS011;1280;49.760;9.664;2022-07-21T04:08:21;21.13;;;17.50;;
2538;SDS011;1280;49.760;9.664;2022-07-21T04:10:50;22.30;;;17.13;;
2538;SDS011;1280;49.760;9.664;2022-07-21T04:13:18;22.27;;;16.90;;
2538;SDS011;1280;49.760;9.664;2022-07-21T04:15:51;21.63;;;16.93;;
2538;SDS011;1280;49.760;9.664;2022-07-21T04:18:20;23.73;;;18.33;;
2538;SDS011;1280;49.760;9.664;2022-07-21T04:20:48;23.00;;;16.97;;
2538;SDS011;1280;49.760;9.664;2022-07-21T04:23:16;23.73;;;18.00;;
2538;SDS011;1280;49.760;9.664;2022-07-21T04:25:44;19.70;;;16.77;;
2538;SDS011;1280;49.760;9.664;2022-07-21T04:28:13;21.20;;;17.57;;
2538;SDS011;1280;49.760;9.664;2022-07-21T04:30:41;19.27;;;16.80;;
2538;SDS011;1280;49.760;9.664;2022-07-21T04:33:09;19.60;;;17.50;;
2538;SDS011;1280;49.760;9.664;2022-07-21T04:35:37;20.37;;;16.73;;
2538;SDS011;1280;49.760;9.664;2022-07-21T04:38:05;19.93;;;17.43;;
2538;SDS011;1280;49.760;9.664;2022-07-21T04:40:35;21.10;;;17.33;;
2538;SDS011;1280;49.760;9.664;2022-07-21T04:43:04;22.70;;;18.50;;
2538;SDS011;1280;49.760;9.664;2022-07-21T04:45:34;22.00;;;17.47;;
2538;SDS011;1280;49.760;9.664;2022-07-21T04:48:03;22.40;;;17.57;;
2538;SDS011;1280;49.760;9.664;2022-07-21T04:50:31;19.73;;;17.10;;
2538;SDS011;1280;49.760;9.664;2022-07-21T04:52:59;24.63;;;17.87;;
2538;SDS011;1280;49.760;9.664;2022-07-21T04:55:27;19.97;;;17.40;;
2538;SDS011;1280;49.760;9.664;2022-07-21T04:57:55;18.77;;;15.80;;
2538;SDS011;1280;49.760;9.664;2022-07-21T05:00:24;33.20;;;17.80;;
2538;SDS011;1280;49.760;9.664;2022-07-21T05:02:54;20.43;;;17.57;;
2538;SDS011;1280;49.760;9.664;2022-07-21T05:05:22;20.00;;;17.27;;
2538;SDS011;1280;49.760;9.664;2022-07-21T05:07:50;21.00;;;17.03;;
2538;SDS011;1280;49.760;9.664;2022-07-21T05:10:18;25.03;;;17.57;;
2538;SDS011;1280;49.760;9.664;2022-07-21T05:12:47;20.43;;;17.40;;
2538;SDS011;1280;49.760;9.664;2022-07-21T05:15:15;22.97;;;17.67;;
2538;SDS011;1280;49.760;9.664;2022-07-21T05:17:44;20.87;;;16.60;;
2538;SDS011;1280;49.760;9.664;2022-07-21T05:20:13;21.80;;;16.80;;
2538;SDS011;1280;49.760;9.664;2022-07-21T05:22:41;22.30;;;17.50;;
2538;SDS011;1280;49.760;9.664;2022-07-21T05:25:09;21.63;;;18.17;;
2538;SDS011;1280;49.760;9.664;2022-07-21T05:27:37;19.50;;;16.20;;
2538;SDS011;1280;49.760;9.664;2022-07-21T05:30:05;17.87;;;14.80;;
2538;SDS011;1280;49.760;9.664;2022-07-21T05:32:34;22.13;;;15.77;;
2538;SDS011;1280;49.760;9.664;2022-07-21T05:35:10;31.77;;;15.77;;
2538;SDS011;1280;49.760;9.664;2022-07-21T05:37:40;20.23;;;16.03;;
2538;SDS011;1280;49.760;9.664;2022-07-21T05:40:09;20.40;;;15.87;;
2538;SDS011;1280;49.760;9.664;2022-07-21T05:42:37;16.83;;;14.40;;
2538;SDS011;1280;49.760;9.664;2022-07-21T05:45:06;16.20;;;13.63;;
2538;SDS011;1280;49.760;9.664;2022-07-21T05:47:35;16.63;;;13.20;;
2538;SDS011;1280;49.760;9.664;2022-07-21T05:50:03;18.17;;;13.80;;
2538;SDS011;1280;49.760;9.664;2022-07-21T05:52:32;18.83;;;14.40;;
2538;SDS011;1280;49.760;9.664;2022-07-21T05:55:02;17.40;;;13.50;;
2538;SDS011;1280;49.760;9.664;2022-07-21T05:57:31;23.83;;;15.87;;
2538;SDS011;1280;49.760;9.664;2022-07-21T05:59:59;18.23;;;14.37;;
2538;SDS011;1280;49.760;9.664;2022-07-21T06:02:33;17.43;;;14.53;;
2538;SDS011;1280;49.760;9.664;2022-07-21T06:05:01;18.80;;;14.30;;
2538;SDS011;1280;49.760;9.664;2022-07-21T06:07:29;20.60;;;15.80;;
2538;SDS011;1280;49.760;9.664;2022-07-21T06:09:57;21.77;;;15.67;;
2538;SDS011;1280;49.760;9.664;2022-07-21T06:12:28;20.50;;;15.97;;
2538;SDS011;1280;49.760;9.664;2022-07-21T06:14:56;19.03;;;15.60;;
2538;SDS011;1280;49.760;9.664;2022-07-21T06:17:24;19.43;;;14.80;;
2538;SDS011;1280;49.760;9.664;2022-07-21T06:19:52;17.60;;;13.60;;
2538;SDS011;1280;49.760;9.664;2022-07-21T06:22:20;18.93;;;14.17;;
2538;SDS011;1280;49.760;9.664;2022-07-21T06:24:48;16.20;;;13.03;;
2538;SDS011;1280;49.760;9.664;2022-07-21T06:27:16;15.83;;;12.00;;
2538;SDS011;1280;49.760;9.664;2022-07-21T06:29:46;14.47;;;11.80;;
2538;SDS011;1280;49.760;9.664;2022-07-21T06:32:14;15.23;;;12.40;;
2538;SDS011;1280;49.760;9.664;2022-07-21T06:34:44;22.00;;;13.10;;
2538;SDS011;1280;49.760;9.664;2022-07-21T06:37:12;13.67;;;11.80;;
2538;SDS011;1280;49.760;9.664;2022-07-21T06:39:40;17.70;;;11.37;;
2538;SDS011;1280;49.760;9.664;2022-07-21T06:42:08;16.00;;;13.53;;
2538;SDS011;1280;49.760;9.664;2022-07-21T06:44:37;17.30;;;12.53;;
2538;SDS011;1280;49.760;9.664;2022-07-21T06:47:06;16.80;;;12.40;;
2538;SDS011;1280;49.760;9.664;2022-07-21T06:49:34;15.20;;;11.70;;
2538;SDS011;1280;49.760;9.664;2022-07-21T06:52:02;15.67;;;12.80;;
2538;SDS011;1280;49.760;9.664;2022-07-21T06:54:30;13.93;;;10.50;;
2538;SDS011;1280;49.760;9.664;2022-07-21T06:56:58;15.60;;;11.13;;
2538;SDS011;1280;49.760;9.664;2022-07-21T06:59:26;13.43;;;10.70;;
2538;SDS011;1280;49.760;9.664;2022-07-21T07:01:54;15.20;;;10.63;;
2538;SDS011;1280;49.760;9.664;2022-07-21T07:04:24;13.17;;;10.20;;
2538;SDS011;1280;49.760;9.664;2022-07-21T07:06:52;12.57;;;10.20;;
2538;SDS011;1280;49.760;9.664;2022-07-21T07:09:21;11.70;;;10.13;;
2538;SDS011;1280;49.760;9.664;2022-07-21T07:11:50;14.07;;;9.87;;
2538;SDS011;1280;49.760;9.664;2022-07-21T07:14:38;13.00;;;9.77;;
2538;SDS011;1280;49.760;9.664;2022-07-21T07:17:06;18.50;;;9.73;;
2538;SDS011;1280;49.760;9.664;2022-07-21T07:19:35;14.53;;;10.83;;
2538;SDS011;1280;49.760;9.664;2022-07-21T07:22:03;12.73;;;9.43;;
2538;SDS011;1280;49.760;9.664;2022-07-21T07:24:31;10.53;;;9.10;;
2538;SDS011;1280;49.760;9.664;2022-07-21T07:26:59;12.47;;;10.00;;
2538;SDS011;1280;49.760;9.664;2022-07-21T07:29:27;12.50;;;10.40;;
2538;SDS011;1280;49.760;9.664;2022-07-21T07:31:57;12.33;;;9.53;;
2538;SDS011;1280;49.760;9.664;2022-07-21T07:34:25;13.40;;;10.57;;
2538;SDS011;1280;49.760;9.664;2022-07-21T07:36:55;13.20;;;10.20;;
2538;SDS011;1280;49.760;9.664;2022-07-21T07:39:23;13.43;;;10.23;;
2538;SDS011;1280;49.760;9.664;2022-07-21T07:41:51;12.50;;;9.87;;
2538;SDS011;1280;49.760;9.664;2022-07-21T07:44:20;14.60;;;9.40;;
2538;SDS011;1280;49.760;9.664;2022-07-21T07:46:48;10.43;;;8.13;;
2538;SDS011;1280;49.760;9.664;2022-07-21T07:49:16;12.43;;;7.80;;
2538;SDS011;1280;49.760;9.664;2022-07-21T07:51:44;15.17;;;8.10;;
2538;SDS011;1280;49.760;9.664;2022-07-21T07:54:14;15.33;;;9.20;;
2538;SDS011;1280;49.760;9.664;2022-07-21T07:56:42;14.53;;;9.73;;
2538;SDS011;1280;49.760;9.664;2022-07-21T07:59:10;13.40;;;9.43;;
2538;SDS011;1280;49.760;9.664;2022-07-21T08:01:38;13.07;;;9.43;;
2538;SDS011;1280;49.760;9.664;2022-07-21T08:04:06;11.60;;;9.13;;
2538;SDS011;1280;49.760;9.664;2022-07-21T08:06:35;12.40;;;8.43;;
2538;SDS011;1280;49.760;9.664;2022-07-21T08:09:03;13.00;;;9.77;;
2538;SDS011;1280;49.760;9.664;2022-07-21T08:11:32;14.10;;;9.43;;
2538;SDS011;1280;49.760;9.664;2022-07-21T08:14:00;13.83;;;10.73;;
2538;SDS011;1280;49.760;9.664;2022-07-21T08:16:28;11.97;;;9.70;;
2538;SDS011;1280;49.760;9.664;2022-07-21T08:18:56;12.30;;;10.17;;
2538;SDS011;1280;49.760;9.664;2022-07-21T08:21:24;13.80;;;10.30;;
2538;SDS011;1280;49.760;9.664;2022-07-21T08:24:16;16.33;;;9.80;;
2538;SDS011;1280;49.760;9.664;2022-07-21T08:26:46;12.63;;;9.67;;
2538;SDS011;1280;49.760;9.664;2022-07-21T08:29:14;14.97;;;9.67;;
2538;SDS011;1280;49.760;9.664;2022-07-21T08:31:42;12.50;;;9.97;;
2538;SDS011;1280;49.760;9.664;2022-07-21T08:34:10;9.77;;;7.10;;
2538;SDS011;1280;49.760;9.664;2022-07-21T08:36:38;12.70;;;8.30;;
2538;SDS011;1280;49.760;9.664;2022-07-21T08:39:06;10.70;;;8.13;;
2538;SDS011;1280;49.760;9.664;2022-07-21T08:41:36;10.20;;;8.80;;
2538;SDS011;1280;49.760;9.664;2022-07-21T08:44:06;12.57;;;9.00;;
2538;SDS011;1280;49.760;9.664;2022-07-21T08:46:37;10.43;;;8.90;;
2538;SDS011;1280;49.760;9.664;2022-07-21T08:49:08;12.23;;;8.70;;
2538;SDS011;1280;49.760;9.664;2022-07-21T08:51:37;13.70;;;10.30;;
2538;SDS011;1280;49.760;9.664;2022-07-21T08:54:05;12.53;;;9.53;;
2538;SDS011;1280;49.760;9.664;2022-07-21T08:56:33;16.00;;;9.53;;
2538;SDS011;1280;49.760;9.664;2022-07-21T08:59:01;11.87;;;9.67;;
2538;SDS011;1280;49.760;9.664;2022-07-21T09:01:32;12.53;;;10.10;;
2538;SDS011;1280;49.760;9.664;2022-07-21T09:06:54;13.67;;;10.60;;
2538;SDS011;1280;49.760;9.664;2022-07-21T09:09:23;11.13;;;9.50;;
2538;SDS011;1280;49.760;9.664;2022-07-21T09:11:52;13.60;;;10.37;;
2538;SDS011;1280;49.760;9.664;2022-07-21T09:14:22;9.73;;;8.37;;
2538;SDS011;1280;49.760;9.664;2022-07-21T09:16:53;12.47;;;8.00;;
2538;SDS011;1280;49.760;9.664;2022-07-21T09:19:29;10.27;;;7.73;;
2538;SDS011;1280;49.760;9.664;2022-07-21T09:22:00;10.77;;;8.33;;
2538;SDS011;1280;49.760;9.664;2022-07-21T09:24:39;9.93;;;7.57;;
2538;SDS011;1280;49.760;9.664;2022-07-21T09:27:08;9.50;;;6.77;;
2538;SDS011;1280;49.760;9.664;2022-07-21T09:29:38;13.03;;;7.07;;
2538;SDS011;1280;49.760;9.664;2022-07-21T09:32:17;10.20;;;6.67;;
2538;SDS011;1280;49.760;9.664;2022-07-21T09:34:50;10.23;;;7.70;;
2538;SDS011;1280;49.760;9.664;2022-07-21T09:37:19;10.37;;;7.07;;
2538;SDS011;1280;49.760;9.664;2022-07-21T09:39:50;10.53;;;8.00;;
2538;SDS011;1280;49.760;9.664;2022-07-21T09:42:21;8.60;;;6.80;;
2538;SDS011;1280;49.760;9.664;2022-07-21T09:44:51;9.07;;;6.97;;
2538;SDS011;1280;49.760;9.664;2022-07-21T09:47:23;10.30;;;5.80;;
2538;SDS011;1280;49.760;9.664;2022-07-21T09:49:52;11.73;;;7.07;;
2538;SDS011;1280;49.760;9.664;2022-07-21T09:52:42;9.57;;;6.50;;
2538;SDS011;1280;49.760;9.664;2022-07-21T09:55:11;7.23;;;5.87;;
2538;SDS011;1280;49.760;9.664;2022-07-21T09:57:41;13.17;;;5.97;;
2538;SDS011;1280;49.760;9.664;2022-07-21T10:00:10;8.83;;;5.17;;
2538;SDS011;1280;49.760;9.664;2022-07-21T10:02:46;7.23;;;4.27;;
2538;SDS011;1280;49.760;9.664;2022-07-21T10:05:16;7.23;;;4.80;;
2538;SDS011;1280;49.760;9.664;2022-07-21T10:07:48;8.90;;;5.90;;
2538;SDS011;1280;49.760;9.664;2022-07-21T10:10:17;8.17;;;5.77;;
2538;SDS011;1280;49.760;9.664;2022-07-21T10:12:46;8.97;;;5.23;;
2538;SDS011;1280;49.760;9.664;2022-07-21T10:15:16;8.87;;;6.50;;
2538;SDS011;1280;49.760;9.664;2022-07-21T10:17:44;8.50;;;5.90;;
2538;SDS011;1280;49.760;9.664;2022-07-21T10:20:21;8.57;;;6.10;;
2538;SDS011;1280;49.760;9.664;2022-07-21T10:22:56;8.37;;;6.13;;
2538;SDS011;1280;49.760;9.664;2022-07-21T10:25:29;9.97;;;6.97;;
2538;SDS011;1280;49.760;9.664;2022-07-21T10:28:14;8.40;;;6.00;;
2538;SDS011;1280;49.760;9.664;2022-07-21T10:30:44;8.50;;;5.73;;
2538;SDS011;1280;49.760;9.664;2022-07-21T10:33:15;9.83;;;6.03;;
2538;SDS011;1280;49.760;9.664;2022-07-21T10:35:45;7.40;;;5.40;;
2538;SDS011;1280;49.760;9.664;2022-07-21T10:38:27;8.70;;;5.40;;
2538;SDS011;1280;49.760;9.664;2022-07-21T10:40:56;8.30;;;5.67;;
2538;SDS011;1280;49.760;9.664;2022-07-21T10:43:35;7.43;;;5.20;;
2538;SDS011;1280;49.760;9.664;2022-07-21T10:49:06;8.70;;;5.23;;
2538;SDS011;1280;49.760;9.664;2022-07-21T10:51:36;7.97;;;5.47;;
2538;SDS011;1280;49.760;9.664;2022-07-21T10:54:22;11.40;;;4.90;;
2538;SDS011;1280;49.760;9.664;2022-07-21T11:02:50;7.10;;;4.90;;
2538;SDS011;1280;49.760;9.664;2022-07-21T11:05:22;8.83;;;5.57;;
2538;SDS011;1280;49.760;9.664;2022-07-21T11:10:40;8.20;;;4.30;;
2538;SDS011;1280;49.760;9.664;2022-07-21T11:13:10;6.10;;;3.83;;
2538;SDS011;1280;49.760;9.664;2022-07-21T11:15:42;6.60;;;4.57;;
2538;SDS011;1280;49.760;9.664;2022-07-21T11:18:18;6.20;;;4.13;;
2538;SDS011;1280;49.760;9.664;2022-07-21T11:21:05;10.50;;;5.47;;
2538;SDS011;1280;49.760;9.664;2022-07-21T11:23:40;7.87;;;5.50;;
2538;SDS011;1280;49.760;9.664;2022-07-21T11:26:10;7.43;;;5.53;;
2538;SDS011;1280;49.760;9.664;2022-07-21T11:28:40;8.17;;;6.47;;
2538;SDS011;1280;49.760;9.664;2022-07-21T11:31:08;8.23;;;6.23;;
2538;SDS011;1280;49.760;9.664;2022-07-21T11:33:39;8.23;;;5.33;;
2538;SDS011;1280;49.760;9.664;2022-07-21T11:36:09;7.97;;;6.20;;
2538;SDS011;1280;49.760;9.664;2022-07-21T11:39:03;7.33;;;5.50;;
2538;SDS011;1280;49.760;9.664;2022-07-21T11:41:33;8.80;;;5.97;;
2538;SDS011;1280;49.760;9.664;2022-07-21T11:44:02;9.10;;;6.50;;
2538;SDS011;1280;49.760;9.664;2022-07-21T11:46:47;9.00;;;6.53;;
2538;SDS011;1280;49.760;9.664;2022-07-21T11:49:17;9.67;;;6.07;;
2538;SDS011;1280;49.760;9.664;2022-07-21T11:51:47;8.53;;;6.03;;
2538;SDS011;1280;49.760;9.664;2022-07-21T11:54:21;8.10;;;6.03;;
2538;SDS011;1280;49.760;9.664;2022-07-21T11:56:50;9.50;;;5.93;;
2538;SDS011;1280;49.760;9.664;2022-07-21T11:59:19;8.77;;;6.43;;
2538;SDS011;1280;49.760;9.664;2022-07-21T12:01:48;8.33;;;6.00;;
2538;SDS011;1280;49.760;9.664;2022-07-21T12:04:41;7.40;;;5.80;;
2538;SDS011;1280;49.760;9.664;2022-07-21T12:07:14;9.10;;;6.17;;
2538;SDS011;1280;49.760;9.664;2022-07-21T12:09:46;9.60;;;5.77;;
2538;SDS011;1280;49.760;9.664;2022-07-21T12:12:27;8.83;;;6.80;;
2538;SDS011;1280;49.760;9.664;2022-07-21T12:15:09;8.03;;;5.73;;
2538;SDS011;1280;49.760;9.664;2022-07-21T12:17:39;8.60;;;5.87;;
2538;SDS011;1280;49.760;9.664;2022-07-21T12:20:09;7.77;;;6.00;;
2538;SDS011;1280;49.760;9.664;2022-07-21T12:22:40;9.20;;;6.13;;
2538;SDS011;1280;49.760;9.664;2022-07-21T12:25:11;10.23;;;7.07;;
2538;SDS011;1280;49.760;9.664;2022-07-21T12:27:42;8.13;;;6.07;;
2538;SDS011;1280;49.760;9.664;2022-07-21T12:33:08;7.30;;;5.13;;
2538;SDS011;1280;49.760;9.664;2022-07-21T12:35:37;7.83;;;5.70;;
2538;SDS011;1280;49.760;9.664;2022-07-21T12:38:08;7.50;;;5.70;;
2538;SDS011;1280;49.760;9.664;2022-07-21T12:40:39;7.93;;;5.23;;
2538;SDS011;1280;49.760;9.664;2022-07-21T12:43:28;9.60;;;6.37;;
2538;SDS011;1280;49.760;9.664;2022-07-21T12:45:58;7.80;;;5.83;;
2538;SDS011;1280;49.760;9.664;2022-07-21T12:48:28;8.50;;;6.03;;
2538;SDS011;1280;49.760;9.664;2022-07-21T12:50:58;10.20;;;6.00;;
2538;SDS011;1280;49.760;9.664;2022-07-21T12:53:29;8.73;;;5.43;;
2538;SDS011;1280;49.760;9.664;2022-07-21T12:55:58;9.37;;;6.13;;
2538;SDS011;1280;49.760;9.664;2022-07-21T12:58:26;7.57;;;5.23;;
2538;SDS011;1280;49.760;9.664;2022-07-21T13:00:55;9.07;;;5.70;;
2538;SDS011;1280;49.760;9.664;2022-07-21T13:03:23;7.30;;;5.17;;
2538;SDS011;1280;49.760;9.664;2022-07-21T13:05:56;10.80;;;5.53;;
2538;SDS011;1280;49.760;9.664;2022-07-21T13:08:25;8.33;;;6.10;;
2538;SDS011;1280;49.760;9.664;2022-07-21T13:10:54;11.10;;;5.90;;
2538;SDS011;1280;49.760;9.664;2022-07-21T13:13:23;10.43;;;6.03;;
2538;SDS011;1280;49.760;9.664;2022-07-21T13:15:51;12.10;;;6.10;;
2538;SDS011;1280;49.760;9.664;2022-07-21T13:18:20;7.20;;;5.53;;
2538;SDS011;1280;49.760;9.664;2022-07-21T13:20:56;11.43;;;5.97;;
2538;SDS011;1280;49.760;9.664;2022-07-21T13:23:23;10.10;;;6.50;;
2538;SDS011;1280;49.760;9.664;2022-07-21T13:25:51;10.00;;;6.90;;
2538;SDS011;1280;49.760;9.664;2022-07-21T13:28:32;10.50;;;7.10;;
2538;SDS011;1280;49.760;9.664;2022-07-21T13:31:03;9.63;;;6.50;;
2538;SDS011;1280;49.760;9.664;2022-07-21T13:33:33;10.40;;;6.57;;
2538;SDS011;1280;49.760;9.664;2022-07-21T13:36:02;9.20;;;6.47;;
2538;SDS011;1280;49.760;9.664;2022-07-21T13:38:31;10.43;;;6.73;;
2538;SDS011;1280;49.760;9.664;2022-07-21T13:41:00;10.90;;;7.20;;
2538;SDS011;1280;49.760;9.664;2022-07-21T13:43:49;10.20;;;6.90;;
2538;SDS011;1280;49.760;9.664;2022-07-21T13:46:18;11.70;;;7.17;;
2538;SDS011;1280;49.760;9.664;2022-07-21T13:48:47;9.20;;;7.80;;
2538;SDS011;1280;49.760;9.664;2022-07-21T13:51:16;11.50;;;7.53;;
2538;SDS011;1280;49.760;9.664;2022-07-21T13:53:46;9.93;;;7.00;;
2538;SDS011;1280;49.760;9.664;2022-07-21T13:56:15;12.10;;;7.60;;
2538;SDS011;1280;49.760;9.664;2022-07-21T13:58:44;10.17;;;7.80;;
2538;SDS011;1280;49.760;9.664;2022-07-21T14:01:14;9.30;;;7.53;;
2538;SDS011;1280;49.760;9.664;2022-07-21T14:03:43;10.50;;;7.40;;
2538;SDS011;1280;49.760;9.664;2022-07-21T14:06:11;12.80;;;7.17;;
2538;SDS011;1280;49.760;9.664;2022-07-21T14:08:40;10.50;;;7.03;;
2538;SDS011;1280;49.760;9.664;2022-07-21T14:11:09;8.40;;;6.50;;
2538;SDS011;1280;49.760;9.664;2022-07-21T14:13:37;12.93;;;7.93;;
2538;SDS011;1280;49.760;9.664;2022-07-21T14:16:05;9.70;;;7.10;;
2538;SDS011;1280;49.760;9.664;2022-07-21T14:18:35;9.23;;;6.57;;
2538;SDS011;1280;49.760;9.664;2022-07-21T14:21:03;10.10;;;7.50;;
2538;SDS011;1280;49.760;9.664;2022-07-21T14:23:31;9.00;;;7.13;;
2538;SDS011;1280;49.760;9.664;2022-07-21T14:26:00;9.50;;;7.30;;
2538;SDS011;1280;49.760;9.664;2022-07-21T14:28:30;11.30;;;7.30;;
2538;SDS011;1280;49.760;9.664;2022-07-21T14:30:58;9.27;;;7.03;;
2538;SDS011;1280;49.760;9.664;2022-07-21T14:33:26;10.70;;;7.30;;
2538;SDS011;1280;49.760;9.664;2022-07-21T14:35:58;9.40;;;7.13;;
2538;SDS011;1280;49.760;9.664;2022-07-21T14:38:26;10.87;;;7.60;;
2538;SDS011;1280;49.760;9.664;2022-07-21T14:40:54;10.63;;;6.60;;
2538;SDS011;1280;49.760;9.664;2022-07-21T14:43:22;13.97;;;8.43;;
2538;SDS011;1280;49.760;9.664;2022-07-21T14:45:50;10.70;;;7.50;;
2538;SDS011;1280;49.760;9.664;2022-07-21T14:48:18;12.50;;;7.97;;
2538;SDS011;1280;49.760;9.664;2022-07-21T14:50:49;10.33;;;7.90;;
2538;SDS011;1280;49.760;9.664;2022-07-21T14:53:19;10.50;;;7.60;;
2538;SDS011;1280;49.760;9.664;2022-07-21T14:55:47;11.70;;;7.70;;
2538;SDS011;1280;49.760;9.664;2022-07-21T14:58:15;9.47;;;7.20;;
2538;SDS011;1280;49.760;9.664;2022-07-21T15:00:43;9.10;;;6.80;;
2538;SDS011;1280;49.760;9.664;2022-07-21T15:03:11;11.13;;;7.90;;
2538;SDS011;1280;49.760;9.664;2022-07-21T15:05:40;9.53;;;7.57;;
2538;SDS011;1280;49.760;9.664;2022-07-21T15:08:08;15.40;;;8.53;;
2538;SDS011;1280;49.760;9.664;2022-07-21T15:10:41;14.07;;;7.17;;
2538;SDS011;1280;49.760;9.664;2022-07-21T15:13:10;9.93;;;7.47;;
2538;SDS011;1280;49.760;9.664;2022-07-21T15:15:38;12.70;;;7.73;;
2538;SDS011;1280;49.760;9.664;2022-07-21T15:18:07;13.70;;;6.80;;
2538;SDS011;1280;49.760;9.664;2022-07-21T15:20:35;9.20;;;7.13;;
2538;SDS011;1280;49.760;9.664;2022-07-21T15:23:03;15.40;;;7.30;;
2538;SDS011;1280;49.760;9.664;2022-07-21T15:25:31;9.17;;;7.07;;
2538;SDS011;1280;49.760;9.664;2022-07-21T15:28:00;8.37;;;6.73;;
2538;SDS011;1280;49.760;9.664;2022-07-21T15:30:30;10.17;;;7.83;;